Terminal Aerodrome Forecast
Issued by NWS

Home | Current Version | Previous Version | Text Only | Print | Product List | Glossary On
Versions: 1 2 3 4 5 6 7 8 9 10 11 12 13 14 15 16 17
388
FTUS43 KILX 232047 AAA
TAFCMI
TAF AMD
KCMI 232047Z 2321/2418 VRB06KT P6SM -SHRA SCT035 BKN080
     FM240400 34005KT P6SM VCSH BKN035
     FM241300 33005KT 4SM BR OVC008=

USA.gov is the U.S. government's official web portal to all federal, state and local government web resources and services.